Terminal Aerodrome Forecast
Issued by NWS Grand Forks, ND

Home | Current Version | Previous Version | Text Only | Print | Product List | Glossary Off
Versions: 1 2 3 4 5 6 7 8 9 10 11 12 13 14 15 16 17 18 19 20

000
FTUS43 KFGF 312320
TAFFAR
TAF
KFAR 312320Z 0100/0124 13012KT P6SM BKN080
     FM011500 15018KT P6SM BKN080=

USA.gov is the U.S. government's official web portal to all federal, state and local government web resources and services.